< < Back
Terminal Aerodrome Forecast


Current Version              Previous Versions:   1  2  3  4  5  6  7  8  9  

Terminal Aerodrome Forecast

164
FTUS42 KTAE 250000 AAA
TAFDHN
TAF AMD
KDHN 250034Z 2501/2524 33006KT P6SM SKC
      TEMPO 2501/2504 3SM FU HZ SKC=



Latest METAR

255
SAUS70 KWBC 250500 RRG
MTRDHN
METAR KDHN 250453Z AUTO 33003KT 10SM CLR 10/08 A3007 RMK AO2 SLP178
T01000078


USA.gov is the U.S. government's official web portal to all federal, state and local government web resources and services.